createdAt,value
2023-05-22T00:01:06.887Z,17.57
2023-05-22T00:03:33.880Z,17.66
2023-05-22T00:06:00.615Z,17.79
2023-05-22T00:08:29.644Z,17.97
2023-05-22T00:10:56.623Z,17.90
2023-05-22T00:13:23.198Z,18.08
2023-05-22T00:15:49.902Z,17.94
2023-05-22T00:18:16.510Z,18.03
2023-05-22T00:20:46.354Z,17.87
2023-05-22T00:23:15.570Z,17.78
2023-05-22T00:25:42.444Z,17.66
2023-05-22T00:28:09.045Z,17.80
2023-05-22T00:30:37.251Z,17.63
2023-05-22T00:33:04.140Z,17.64
2023-05-22T00:35:31.123Z,17.59
2023-05-22T00:37:57.786Z,17.59
2023-05-22T00:40:24.354Z,17.33
2023-05-22T00:42:50.896Z,17.13
2023-05-22T00:45:17.545Z,17.15
2023-05-22T00:47:44.350Z,17.05
2023-05-22T00:50:11.982Z,16.91
2023-05-22T00:52:42.110Z,16.82
2023-05-22T00:55:10.161Z,16.98
2023-05-22T00:57:38.578Z,16.93
2023-05-22T01:00:06.634Z,16.88
2023-05-22T01:02:33.461Z,17.09
2023-05-22T01:05:00.164Z,17.08
2023-05-22T01:07:26.707Z,16.94
2023-05-22T01:09:53.291Z,16.85
2023-05-22T01:12:29.996Z,16.59
2023-05-22T01:15:02.802Z,16.77
2023-05-22T01:17:34.937Z,16.89
2023-05-22T01:20:26.551Z,16.90
2023-05-22T01:23:15.013Z,16.85
2023-05-22T01:25:56.652Z,16.84
2023-05-22T01:28:53.583Z,16.93
2023-05-22T01:31:27.123Z,16.93
2023-05-22T01:33:56.956Z,17.05
2023-05-22T01:36:28.784Z,17.05
2023-05-22T01:38:56.462Z,17.05
2023-05-22T01:41:23.451Z,16.94
2023-05-22T01:43:50.060Z,16.76
2023-05-22T01:46:16.653Z,16.73
2023-05-22T01:48:43.219Z,16.70
2023-05-22T01:51:15.994Z,16.57
2023-05-22T01:53:57.450Z,16.40
2023-05-22T01:56:34.574Z,16.28
2023-05-22T01:59:09.436Z,16.20
2023-05-22T02:01:38.314Z,16.14
2023-05-22T02:04:06.570Z,16.10
2023-05-22T02:06:33.740Z,16.11
2023-05-22T02:09:02.910Z,16.01
2023-05-22T02:11:32.866Z,15.91
2023-05-22T02:14:00.034Z,15.82
2023-05-22T02:16:28.777Z,15.90
2023-05-22T02:19:06.342Z,15.92
2023-05-22T02:21:34.320Z,15.88
2023-05-22T02:24:01.364Z,15.80
2023-05-22T02:26:28.288Z,15.83
2023-05-22T02:28:54.865Z,15.64
2023-05-22T02:31:21.534Z,15.78
2023-05-22T02:33:48.469Z,15.75
2023-05-22T02:36:15.033Z,15.72
2023-05-22T02:38:41.592Z,15.76
2023-05-22T02:41:08.371Z,15.68
2023-05-22T02:43:34.898Z,15.70
2023-05-22T02:46:01.530Z,15.75
2023-05-22T02:48:29.367Z,15.81
2023-05-22T02:50:55.940Z,15.80
2023-05-22T02:53:22.513Z,15.73
2023-05-22T02:55:49.113Z,15.71
2023-05-22T02:58:15.780Z,15.77
2023-05-22T03:00:43.302Z,15.73
2023-05-22T03:03:10.374Z,15.67
2023-05-22T03:05:37.448Z,15.62
2023-05-22T03:08:04.042Z,15.66
2023-05-22T03:10:31.120Z,15.73
2023-05-22T03:12:57.711Z,15.79
2023-05-22T03:15:24.278Z,15.69
2023-05-22T03:17:50.945Z,15.62
2023-05-22T03:20:17.852Z,15.60
2023-05-22T03:22:44.423Z,15.49
2023-05-22T03:25:11.062Z,15.50
2023-05-22T03:27:39.486Z,15.58
2023-05-22T03:30:06.757Z,15.67
2023-05-22T03:32:37.137Z,15.69
2023-05-22T03:35:05.202Z,15.78
2023-05-22T03:37:31.782Z,15.64
2023-05-22T03:39:58.373Z,15.65
2023-05-22T03:42:24.902Z,15.73
2023-05-22T03:44:51.485Z,15.58
2023-05-22T03:47:17.977Z,15.50
2023-05-22T03:49:44.579Z,15.63
2023-05-22T03:52:11.384Z,15.52
2023-05-22T03:54:37.894Z,15.51
2023-05-22T03:57:05.791Z,15.51
2023-05-22T03:59:32.281Z,15.55
2023-05-22T04:02:01.254Z,15.48
2023-05-22T04:04:28.477Z,15.60
2023-05-22T04:06:58.252Z,15.66
2023-05-22T04:09:31.427Z,15.59
2023-05-22T04:11:58.538Z,15.64
2023-05-22T04:14:25.044Z,15.66
2023-05-22T04:16:51.596Z,15.70
2023-05-22T04:19:18.287Z,15.48
2023-05-22T04:21:45.215Z,15.57
2023-05-22T04:24:11.718Z,15.63
2023-05-22T04:26:41.734Z,15.84
2023-05-22T04:29:10.511Z,15.92
2023-05-22T04:31:37.410Z,15.77
2023-05-22T04:34:04.235Z,15.97
2023-05-22T04:36:31.143Z,16.11
2023-05-22T04:38:57.777Z,16.12
2023-05-22T04:41:26.653Z,15.95
2023-05-22T04:43:54.549Z,16.02
2023-05-22T04:46:21.240Z,16.12
2023-05-22T04:48:47.883Z,16.12
2023-05-22T04:51:14.530Z,16.28
2023-05-22T04:53:41.104Z,16.29
2023-05-22T04:56:07.793Z,16.23
2023-05-22T04:58:34.257Z,16.30
2023-05-22T05:01:00.895Z,16.30
2023-05-22T05:03:28.477Z,16.34
2023-05-22T05:05:55.137Z,16.47
2023-05-22T05:08:21.724Z,16.49
2023-05-22T05:10:48.292Z,16.65
2023-05-22T05:13:14.921Z,16.68
2023-05-22T05:15:41.400Z,16.78
2023-05-22T05:18:08.008Z,17.04
2023-05-22T05:20:34.565Z,17.23
2023-05-22T05:23:01.144Z,17.40
2023-05-22T05:25:27.966Z,17.51
2023-05-22T05:27:54.528Z,17.55
2023-05-22T05:30:21.137Z,17.81
2023-05-22T05:32:47.685Z,18.13
2023-05-22T05:35:14.400Z,18.07
2023-05-22T05:37:41.778Z,18.29
2023-05-22T05:40:09.220Z,18.65
2023-05-22T05:42:35.966Z,18.56
2023-05-22T05:45:02.515Z,18.79
2023-05-22T05:47:29.794Z,19.07
2023-05-22T05:49:56.364Z,19.28
2023-05-22T05:52:22.915Z,19.32
2023-05-22T05:54:49.423Z,19.39
2023-05-22T05:57:16.482Z,19.60
2023-05-22T05:59:43.021Z,19.94
2023-05-22T06:02:09.857Z,20.17
2023-05-22T06:04:36.780Z,20.43
2023-05-22T06:07:03.300Z,20.64
2023-05-22T06:09:29.772Z,20.59
2023-05-22T06:11:56.337Z,21.07
2023-05-22T06:14:22.865Z,21.22
2023-05-22T06:16:49.434Z,21.28
2023-05-22T06:19:16.226Z,21.58
2023-05-22T06:21:42.840Z,21.86
2023-05-22T06:24:09.564Z,21.79
2023-05-22T06:26:36.205Z,22.04
2023-05-22T06:29:02.705Z,22.27
2023-05-22T06:31:29.404Z,22.50
2023-05-22T06:33:56.176Z,22.71
2023-05-22T06:36:22.809Z,22.90
2023-05-22T06:38:49.699Z,22.89
2023-05-22T06:41:16.273Z,22.92
2023-05-22T06:43:42.744Z,23.44
2023-05-22T06:46:09.517Z,23.63
2023-05-22T06:48:36.259Z,24.04
2023-05-22T06:51:02.948Z,24.23
2023-05-22T06:53:29.654Z,24.31
2023-05-22T06:55:56.834Z,24.60
2023-05-22T06:58:23.369Z,24.33
2023-05-22T07:00:49.957Z,24.78
2023-05-22T07:03:16.636Z,25.07
2023-05-22T07:05:43.280Z,25.27
2023-05-22T07:08:10.396Z,25.48
2023-05-22T07:10:37.086Z,25.54
2023-05-22T07:13:03.950Z,26.04
2023-05-22T07:15:30.518Z,25.64
2023-05-22T07:17:57.171Z,25.93
2023-05-22T07:20:25.691Z,26.37
2023-05-22T07:22:52.217Z,25.66
2023-05-22T07:25:18.709Z,26.19
2023-05-22T07:27:45.264Z,26.49
2023-05-22T07:30:12.363Z,26.47
2023-05-22T07:32:39.025Z,26.77
2023-05-22T07:35:06.110Z,27.52
2023-05-22T07:37:32.895Z,27.57
2023-05-22T07:39:59.493Z,27.59
2023-05-22T07:42:27.299Z,27.66
2023-05-22T07:44:53.772Z,27.54
2023-05-22T07:47:20.351Z,27.28
2023-05-22T07:49:46.961Z,27.70
2023-05-22T07:52:13.489Z,28.13
2023-05-22T07:54:41.523Z,28.69
2023-05-22T07:57:08.994Z,29.00
2023-05-22T07:59:37.574Z,28.73
2023-05-22T08:02:04.393Z,29.05
2023-05-22T08:04:31.121Z,29.63
2023-05-22T08:06:57.733Z,29.73
2023-05-22T08:09:24.312Z,29.72
2023-05-22T08:11:50.867Z,29.63
2023-05-22T08:14:17.414Z,29.74
2023-05-22T08:16:44.009Z,29.94
2023-05-22T08:19:11.118Z,29.95
2023-05-22T08:21:37.945Z,30.77
2023-05-22T08:24:04.597Z,30.11
2023-05-22T08:26:33.282Z,30.34
2023-05-22T08:29:00.531Z,30.77
2023-05-22T08:31:29.333Z,30.54
2023-05-22T08:34:02.478Z,31.19
2023-05-22T08:36:34.037Z,31.18
2023-05-22T08:39:01.449Z,30.93
2023-05-22T08:41:29.408Z,31.05
2023-05-22T08:43:56.010Z,31.64
2023-05-22T08:46:26.210Z,31.58
2023-05-22T08:48:57.055Z,31.13
2023-05-22T08:51:28.358Z,31.74
2023-05-22T08:53:58.931Z,32.26
2023-05-22T08:56:28.644Z,32.46
2023-05-22T08:58:57.386Z,32.37
2023-05-22T09:01:24.689Z,32.32
2023-05-22T09:03:51.764Z,32.19
2023-05-22T09:06:18.622Z,32.17
2023-05-22T09:08:46.035Z,32.74
2023-05-22T09:11:13.266Z,32.53
2023-05-22T09:13:41.287Z,32.23
2023-05-22T09:16:12.754Z,32.99
2023-05-22T09:18:40.185Z,32.33
2023-05-22T09:21:14.786Z,32.38
2023-05-22T09:23:53.936Z,31.92
2023-05-22T09:26:21.036Z,32.36
2023-05-22T09:28:47.657Z,32.46
2023-05-22T09:31:14.624Z,32.47
2023-05-22T09:33:44.152Z,33.12
2023-05-22T09:36:11.056Z,32.91
2023-05-22T09:38:37.684Z,33.42
2023-05-22T09:41:04.215Z,33.68
2023-05-22T09:43:31.225Z,33.84
2023-05-22T09:46:01.722Z,33.69
2023-05-22T09:48:28.646Z,34.07
2023-05-22T09:50:56.112Z,33.41
2023-05-22T09:53:27.942Z,33.18
2023-05-22T09:55:56.768Z,33.32
2023-05-22T09:58:25.231Z,33.84
2023-05-22T10:00:52.958Z,34.15
2023-05-22T10:03:23.339Z,33.99
2023-05-22T10:05:52.466Z,34.05
2023-05-22T10:08:23.370Z,33.69
2023-05-22T10:10:53.266Z,33.81
2023-05-22T10:13:20.873Z,34.51
2023-05-22T10:15:49.098Z,34.40
2023-05-22T10:18:17.275Z,34.42
2023-05-22T10:20:46.846Z,34.63
2023-05-22T10:23:16.522Z,34.68
2023-05-22T10:25:44.611Z,34.22
2023-05-22T10:28:13.393Z,34.27
2023-05-22T10:30:40.179Z,34.16
2023-05-22T10:33:14.578Z,34.21
2023-05-22T10:35:55.426Z,33.92
2023-05-22T10:38:24.737Z,34.30
2023-05-22T10:40:51.624Z,34.43
2023-05-22T10:43:18.455Z,34.08
2023-05-22T10:45:46.737Z,34.80
2023-05-22T10:48:13.646Z,34.89
2023-05-22T10:50:41.041Z,35.44
2023-05-22T10:53:28.041Z,35.62
2023-05-22T10:55:56.943Z,35.59
2023-05-22T10:58:28.716Z,35.02
2023-05-22T11:01:21.441Z,35.35
2023-05-22T11:04:10.600Z,35.01
2023-05-22T11:06:47.132Z,34.79
2023-05-22T11:09:29.876Z,35.11
2023-05-22T11:12:25.587Z,35.48
2023-05-22T11:14:53.410Z,35.24
2023-05-22T11:17:24.098Z,35.35
2023-05-22T11:20:00.708Z,35.64
2023-05-22T11:22:51.218Z,36.16
2023-05-22T11:25:19.375Z,35.84
2023-05-22T11:27:47.763Z,35.40
2023-05-22T11:30:15.675Z,36.11
2023-05-22T11:32:48.023Z,35.70
2023-05-22T11:35:15.703Z,35.95
2023-05-22T11:37:42.281Z,36.01
2023-05-22T11:40:09.991Z,36.11
2023-05-22T11:42:37.736Z,36.59
2023-05-22T11:45:05.260Z,36.34
2023-05-22T11:47:31.957Z,36.10
2023-05-22T11:49:59.918Z,36.34
2023-05-22T11:52:31.600Z,35.86
2023-05-22T11:55:02.429Z,35.38
2023-05-22T11:57:29.035Z,35.71
2023-05-22T11:59:56.031Z,35.89
2023-05-22T12:02:22.648Z,36.33
2023-05-22T12:04:54.604Z,35.97
2023-05-22T12:07:22.479Z,36.30
2023-05-22T12:09:49.263Z,36.22
2023-05-22T12:12:16.271Z,36.46
2023-05-22T12:14:46.024Z,36.29
2023-05-22T12:17:13.401Z,36.28
2023-05-22T12:19:41.200Z,36.11
2023-05-22T12:22:08.998Z,36.13
2023-05-22T12:24:46.041Z,36.47
2023-05-22T12:27:13.497Z,36.60
2023-05-22T12:29:41.145Z,36.48
2023-05-22T12:32:11.879Z,36.85
2023-05-22T12:34:48.098Z,36.49
2023-05-22T12:37:22.840Z,36.58
2023-05-22T12:39:57.512Z,36.43
2023-05-22T12:42:24.943Z,36.28
2023-05-22T12:44:56.615Z,36.24
2023-05-22T12:47:24.538Z,36.15
2023-05-22T12:49:51.619Z,36.35
2023-05-22T12:52:18.188Z,36.01
2023-05-22T12:54:44.895Z,35.85
2023-05-22T12:57:11.492Z,35.94
2023-05-22T12:59:38.057Z,36.28
2023-05-22T13:02:05.539Z,35.84
2023-05-22T13:04:32.479Z,36.50
2023-05-22T13:06:59.084Z,36.59
2023-05-22T13:09:25.958Z,35.93
2023-05-22T13:11:52.551Z,34.89
2023-05-22T13:14:19.395Z,35.15
2023-05-22T13:16:45.970Z,35.41
2023-05-22T13:19:12.587Z,34.68
2023-05-22T13:21:39.182Z,34.02
2023-05-22T13:24:05.848Z,33.19
2023-05-22T13:26:32.371Z,34.23
2023-05-22T13:28:58.902Z,34.57
2023-05-22T13:31:25.519Z,34.95
2023-05-22T13:33:52.273Z,34.76
2023-05-22T13:36:19.035Z,34.75
2023-05-22T13:38:45.694Z,34.68
2023-05-22T13:41:12.397Z,34.16
2023-05-22T13:43:38.870Z,33.37
2023-05-22T13:46:05.654Z,33.02
2023-05-22T13:48:32.238Z,32.34
2023-05-22T13:50:58.766Z,31.85
2023-05-22T13:53:25.356Z,31.71
2023-05-22T13:55:51.866Z,32.41
2023-05-22T13:58:18.337Z,33.07
2023-05-22T14:00:44.824Z,33.46
2023-05-22T14:03:17.291Z,33.82
2023-05-22T14:05:45.390Z,34.35
2023-05-22T14:08:12.621Z,34.09
2023-05-22T14:10:39.662Z,33.94
2023-05-22T14:13:06.419Z,33.93
2023-05-22T14:15:33.024Z,33.72
2023-05-22T14:17:59.908Z,33.38
2023-05-22T14:20:26.758Z,33.04
2023-05-22T14:22:57.501Z,32.99
2023-05-22T14:25:26.286Z,33.00
2023-05-22T14:27:54.176Z,32.87
2023-05-22T14:30:20.731Z,32.88
2023-05-22T14:32:47.540Z,32.72
2023-05-22T14:35:14.186Z,32.77
2023-05-22T14:37:40.771Z,32.65
2023-05-22T14:40:08.225Z,32.76
2023-05-22T14:42:36.099Z,32.64
2023-05-22T14:45:03.924Z,32.34
2023-05-22T14:47:30.455Z,32.23
2023-05-22T14:50:03.092Z,31.94
2023-05-22T14:52:43.497Z,32.15
2023-05-22T14:55:10.097Z,32.04
2023-05-22T14:57:36.607Z,31.83
2023-05-22T15:00:04.935Z,31.59
2023-05-22T15:02:31.559Z,31.20
2023-05-22T15:04:58.086Z,30.99
2023-05-22T15:07:29.399Z,30.77
2023-05-22T15:10:07.886Z,30.37
2023-05-22T15:12:34.435Z,30.10
2023-05-22T15:15:01.562Z,30.01
2023-05-22T15:17:28.135Z,29.84
2023-05-22T15:19:54.615Z,29.93
2023-05-22T15:22:21.116Z,29.64
2023-05-22T15:24:48.174Z,29.62
2023-05-22T15:27:14.894Z,29.56
2023-05-22T15:29:41.986Z,29.06
2023-05-22T15:32:09.203Z,28.93
2023-05-22T15:34:36.046Z,29.02
2023-05-22T15:37:02.545Z,28.89
2023-05-22T15:39:29.668Z,28.80
2023-05-22T15:42:05.879Z,28.76
2023-05-22T15:44:33.210Z,28.77
2023-05-22T15:46:59.746Z,28.93
2023-05-22T15:49:28.033Z,28.90
2023-05-22T15:51:58.358Z,29.05
2023-05-22T15:54:24.974Z,28.90
2023-05-22T15:56:51.594Z,28.98
2023-05-22T15:59:18.128Z,28.92
2023-05-22T16:01:44.774Z,28.75
2023-05-22T16:04:11.527Z,28.45
2023-05-22T16:06:38.032Z,28.21
2023-05-22T16:09:04.561Z,27.84
2023-05-22T16:11:31.192Z,27.69
2023-05-22T16:13:57.756Z,27.62
2023-05-22T16:16:24.334Z,27.38
2023-05-22T16:18:50.993Z,27.36
2023-05-22T16:21:17.494Z,27.42
2023-05-22T16:23:44.035Z,27.27
2023-05-22T16:26:10.637Z,27.20
2023-05-22T16:28:37.189Z,27.08
2023-05-22T16:31:06.114Z,27.02
2023-05-22T16:33:34.422Z,26.95
2023-05-22T16:36:02.660Z,27.03
2023-05-22T16:38:29.254Z,27.05
2023-05-22T16:40:55.975Z,26.98
2023-05-22T16:43:22.489Z,26.86
2023-05-22T16:45:51.169Z,26.76
2023-05-22T16:48:18.280Z,26.58
2023-05-22T16:50:46.615Z,26.36
2023-05-22T16:53:16.677Z,26.35
2023-05-22T16:55:43.465Z,26.31
2023-05-22T16:58:11.568Z,26.18
2023-05-22T17:00:40.142Z,26.19
2023-05-22T17:03:08.418Z,26.19
2023-05-22T17:05:36.660Z,26.22
2023-05-22T17:08:03.447Z,26.17
2023-05-22T17:10:30.071Z,26.11
2023-05-22T17:12:56.717Z,26.18
2023-05-22T17:15:23.509Z,26.12
2023-05-22T17:17:50.792Z,26.04
2023-05-22T17:20:17.472Z,26.11
2023-05-22T17:22:44.061Z,26.13
2023-05-22T17:25:10.621Z,26.04
2023-05-22T17:27:37.199Z,26.01
2023-05-22T17:30:04.992Z,25.79
2023-05-22T17:32:31.804Z,25.43
2023-05-22T17:34:58.651Z,25.11
2023-05-22T17:37:25.183Z,24.76
2023-05-22T17:39:51.844Z,24.56
2023-05-22T17:42:18.417Z,24.32
2023-05-22T17:44:45.090Z,24.19
2023-05-22T17:47:13.305Z,24.11
2023-05-22T17:49:39.823Z,24.02
2023-05-22T17:52:08.652Z,23.75
2023-05-22T17:54:35.752Z,23.57
2023-05-22T17:57:04.098Z,23.54
2023-05-22T17:59:32.491Z,23.26
2023-05-22T18:01:59.156Z,23.11
2023-05-22T18:04:26.037Z,22.97
2023-05-22T18:06:52.711Z,22.93
2023-05-22T18:09:19.268Z,22.75
2023-05-22T18:11:45.893Z,22.89
2023-05-22T18:14:12.637Z,23.11
2023-05-22T18:16:39.231Z,22.95
2023-05-22T18:19:05.863Z,22.93
2023-05-22T18:21:32.364Z,22.88
2023-05-22T18:23:59.017Z,23.01
2023-05-22T18:26:26.712Z,22.85
2023-05-22T18:28:53.318Z,22.69
2023-05-22T18:31:20.018Z,22.60
2023-05-22T18:33:46.644Z,22.48
2023-05-22T18:36:13.397Z,22.58
2023-05-22T18:38:39.905Z,22.48
2023-05-22T18:41:07.211Z,22.34
2023-05-22T18:43:33.804Z,22.25
2023-05-22T18:46:00.517Z,22.07
2023-05-22T18:48:28.219Z,22.18
2023-05-22T18:50:57.378Z,21.98
2023-05-22T18:53:25.300Z,22.01
2023-05-22T18:55:53.757Z,21.96
2023-05-22T18:58:20.648Z,21.85
2023-05-22T19:00:47.267Z,21.92
2023-05-22T19:03:14.116Z,21.77
2023-05-22T19:05:41.169Z,21.68
2023-05-22T19:08:07.747Z,21.55
2023-05-22T19:10:34.420Z,21.56
2023-05-22T19:13:01.006Z,21.62
2023-05-22T19:15:27.618Z,21.52
2023-05-22T19:17:54.145Z,21.35
2023-05-22T19:20:20.836Z,21.33
2023-05-22T19:22:47.391Z,21.20
2023-05-22T19:25:13.961Z,21.14
2023-05-22T19:27:40.484Z,21.35
2023-05-22T19:30:07.545Z,21.30
2023-05-22T19:32:34.247Z,21.17
2023-05-22T19:35:01.499Z,21.17
2023-05-22T19:37:28.059Z,21.22
2023-05-22T19:39:54.572Z,21.06
2023-05-22T19:42:21.110Z,20.93
2023-05-22T19:44:54.510Z,20.90
2023-05-22T19:47:21.057Z,20.86
2023-05-22T19:49:47.553Z,20.81
2023-05-22T19:52:14.025Z,20.75
2023-05-22T19:54:40.569Z,20.79
2023-05-22T19:57:07.238Z,20.84
2023-05-22T19:59:36.413Z,20.79
2023-05-22T20:02:03.319Z,20.72
2023-05-22T20:04:30.409Z,20.58
2023-05-22T20:06:58.724Z,20.54
2023-05-22T20:09:26.940Z,20.47
2023-05-22T20:11:53.607Z,20.30
2023-05-22T20:14:20.133Z,20.29
2023-05-22T20:16:46.671Z,20.22
2023-05-22T20:19:14.799Z,20.21
2023-05-22T20:21:41.471Z,20.15
2023-05-22T20:24:21.010Z,20.14
2023-05-22T20:26:50.496Z,20.03
2023-05-22T20:29:20.443Z,19.84
2023-05-22T20:31:50.301Z,19.89
2023-05-22T20:34:19.891Z,19.88
2023-05-22T20:36:46.628Z,19.84
2023-05-22T20:39:13.543Z,19.78
2023-05-22T20:41:40.179Z,19.79
2023-05-22T20:44:06.804Z,19.87
2023-05-22T20:46:33.801Z,19.89
2023-05-22T20:49:03.425Z,19.67
2023-05-22T20:51:32.575Z,19.55
2023-05-22T20:53:59.873Z,19.70
2023-05-22T20:56:27.175Z,19.54
2023-05-22T20:58:54.700Z,19.72
2023-05-22T21:01:21.409Z,19.71
2023-05-22T21:03:49.854Z,19.64
2023-05-22T21:06:16.450Z,19.60
2023-05-22T21:08:42.909Z,19.69
2023-05-22T21:11:09.485Z,19.58
2023-05-22T21:13:36.352Z,19.51
2023-05-22T21:16:02.884Z,19.46
2023-05-22T21:18:29.389Z,19.33
2023-05-22T21:20:55.851Z,19.31
2023-05-22T21:23:24.539Z,19.20
2023-05-22T21:25:51.413Z,19.16
2023-05-22T21:28:17.889Z,19.16
2023-05-22T21:30:44.464Z,19.22
2023-05-22T21:33:12.026Z,19.16
2023-05-22T21:35:38.535Z,19.27
2023-05-22T21:38:05.069Z,19.11
2023-05-22T21:40:31.605Z,18.97
2023-05-22T21:42:58.124Z,19.07
2023-05-22T21:45:24.626Z,19.09
2023-05-22T21:47:51.282Z,18.98
2023-05-22T21:50:17.970Z,18.99
2023-05-22T21:52:44.511Z,18.89
2023-05-22T21:55:11.139Z,18.83
2023-05-22T21:57:37.710Z,18.95
2023-05-22T22:00:04.525Z,19.00
2023-05-22T22:02:31.248Z,18.88
2023-05-22T22:04:57.771Z,18.87
2023-05-22T22:07:24.268Z,18.84
2023-05-22T22:09:50.861Z,18.68
2023-05-22T22:12:17.392Z,18.68
2023-05-22T22:14:43.931Z,18.61
2023-05-22T22:17:10.452Z,18.64
2023-05-22T22:19:37.087Z,18.61
2023-05-22T22:22:03.996Z,18.55
2023-05-22T22:24:30.532Z,18.57
2023-05-22T22:26:57.166Z,18.60
2023-05-22T22:29:23.741Z,18.52
2023-05-22T22:31:50.486Z,18.51
2023-05-22T22:34:17.199Z,18.53
2023-05-22T22:36:43.998Z,18.45
2023-05-22T22:39:11.184Z,18.48
2023-05-22T22:41:37.895Z,18.43
2023-05-22T22:44:04.507Z,18.43
2023-05-22T22:46:31.318Z,18.20
2023-05-22T22:49:01.828Z,18.24
2023-05-22T22:51:31.630Z,18.19
2023-05-22T22:53:58.443Z,18.17
2023-05-22T22:56:29.242Z,18.27
2023-05-22T22:58:57.106Z,18.19
2023-05-22T23:01:24.011Z,18.12
2023-05-22T23:03:50.942Z,18.07
2023-05-22T23:06:18.230Z,18.22
2023-05-22T23:08:44.803Z,18.30
2023-05-22T23:11:11.343Z,18.24
2023-05-22T23:13:40.433Z,18.06
2023-05-22T23:16:07.042Z,18.11
2023-05-22T23:18:33.576Z,18.05
2023-05-22T23:21:00.150Z,18.09
2023-05-22T23:23:27.907Z,18.00
2023-05-22T23:25:55.319Z,17.91
2023-05-22T23:28:22.627Z,17.92
2023-05-22T23:30:49.194Z,17.96
2023-05-22T23:33:16.038Z,17.95
2023-05-22T23:35:42.662Z,17.97
2023-05-22T23:38:09.224Z,17.90
2023-05-22T23:40:35.781Z,17.87
2023-05-22T23:43:02.346Z,17.92
2023-05-22T23:45:28.881Z,17.86
2023-05-22T23:47:55.440Z,17.80
2023-05-22T23:50:21.948Z,17.93
2023-05-22T23:52:48.591Z,17.93
2023-05-22T23:55:15.661Z,17.71
2023-05-22T23:57:42.249Z,17.56
